sensor_id;sensor_type;location;lat;lon;timestamp;temperature;humidity
21928;DHT22;11128;51.096;17.190;2023-07-13T00:00:43;22.60;1.00
21928;DHT22;11128;51.096;17.190;2023-07-13T00:05:44;22.50;99.90
21928;DHT22;11128;51.096;17.190;2023-07-13T00:10:45;22.40;1.00
21928;DHT22;11128;51.096;17.190;2023-07-13T00:15:47;22.30;1.00
21928;DHT22;11128;51.096;17.190;2023-07-13T00:20:49;22.30;1.00
21928;DHT22;11128;51.096;17.190;2023-07-13T00:25:50;22.30;99.90
21928;DHT22;11128;51.096;17.190;2023-07-13T00:30:52;22.20;1.00
21928;DHT22;11128;51.096;17.190;2023-07-13T00:35:54;22.20;1.00
21928;DHT22;11128;51.096;17.190;2023-07-13T00:40:56;22.20;1.00
21928;DHT22;11128;51.096;17.190;2023-07-13T00:46:31;22.10;1.00
21928;DHT22;11128;51.096;17.190;2023-07-13T00:51:37;22.00;1.00
21928;DHT22;11128;51.096;17.190;2023-07-13T00:56:41;21.90;1.00
21928;DHT22;11128;51.096;17.190;2023-07-13T01:01:44;22.00;1.00
21928;DHT22;11128;51.096;17.190;2023-07-13T01:06:46;22.00;1.00
21928;DHT22;11128;51.096;17.190;2023-07-13T01:11:48;22.00;1.00
21928;DHT22;11128;51.096;17.190;2023-07-13T01:16:50;22.00;1.00
21928;DHT22;11128;51.096;17.190;2023-07-13T01:21:52;22.10;1.00
21928;DHT22;11128;51.096;17.190;2023-07-13T01:26:54;22.20;1.00
21928;DHT22;11128;51.096;17.190;2023-07-13T01:31:55;22.20;1.00
21928;DHT22;11128;51.096;17.190;2023-07-13T01:36:56;22.00;1.00
21928;DHT22;11128;51.096;17.190;2023-07-13T01:41:58;21.90;1.00
21928;DHT22;11128;51.096;17.190;2023-07-13T01:46:59;22.00;1.00
21928;DHT22;11128;51.096;17.190;2023-07-13T01:52:00;22.10;1.00
21928;DHT22;11128;51.096;17.190;2023-07-13T01:57:01;21.80;1.00
21928;DHT22;11128;51.096;17.190;2023-07-13T02:02:04;21.80;1.00
21928;DHT22;11128;51.096;17.190;2023-07-13T02:07:05;21.70;1.00
21928;DHT22;11128;51.096;17.190;2023-07-13T02:12:07;21.60;1.00
21928;DHT22;11128;51.096;17.190;2023-07-13T02:17:10;21.40;1.00
21928;DHT22;11128;51.096;17.190;2023-07-13T02:22:11;21.30;1.00
21928;DHT22;11128;51.096;17.190;2023-07-13T02:27:13;21.10;1.00
21928;DHT22;11128;51.096;17.190;2023-07-13T02:32:14;21.00;99.90
21928;DHT22;11128;51.096;17.190;2023-07-13T02:37:15;21.00;99.90
21928;DHT22;11128;51.096;17.190;2023-07-13T02:42:17;21.10;1.00
21928;DHT22;11128;51.096;17.190;2023-07-13T02:47:18;21.10;1.00
21928;DHT22;11128;51.096;17.190;2023-07-13T02:52:19;21.20;1.00
21928;DHT22;11128;51.096;17.190;2023-07-13T02:57:21;21.20;1.00
21928;DHT22;11128;51.096;17.190;2023-07-13T03:02:22;21.20;1.00
21928;DHT22;11128;51.096;17.190;2023-07-13T03:07:24;21.30;1.00
21928;DHT22;11128;51.096;17.190;2023-07-13T03:12:26;21.10;1.00
21928;DHT22;11128;51.096;17.190;2023-07-13T03:17:27;21.10;1.00
21928;DHT22;11128;51.096;17.190;2023-07-13T03:22:29;21.00;1.00
21928;DHT22;11128;51.096;17.190;2023-07-13T03:27:30;21.00;1.00
21928;DHT22;11128;51.096;17.190;2023-07-13T03:32:32;20.70;1.00
21928;DHT22;11128;51.096;17.190;2023-07-13T03:37:33;20.60;1.00
21928;DHT22;11128;51.096;17.190;2023-07-13T03:42:34;20.60;1.00
21928;DHT22;11128;51.096;17.190;2023-07-13T03:47:36;20.60;1.00
21928;DHT22;11128;51.096;17.190;2023-07-13T03:52:37;20.70;1.00
21928;DHT22;11128;51.096;17.190;2023-07-13T03:57:38;20.80;1.00
21928;DHT22;11128;51.096;17.190;2023-07-13T04:02:40;20.80;99.90
21928;DHT22;11128;51.096;17.190;2023-07-13T04:07:42;20.90;1.00
21928;DHT22;11128;51.096;17.190;2023-07-13T04:12:43;21.00;99.90
21928;DHT22;11128;51.096;17.190;2023-07-13T04:17:44;21.10;99.90
21928;DHT22;11128;51.096;17.190;2023-07-13T04:22:46;21.10;99.90
21928;DHT22;11128;51.096;17.190;2023-07-13T04:27:47;21.00;1.00
21928;DHT22;11128;51.096;17.190;2023-07-13T04:32:50;20.90;99.90
21928;DHT22;11128;51.096;17.190;2023-07-13T04:37:53;21.10;99.90
21928;DHT22;11128;51.096;17.190;2023-07-13T04:42:54;21.10;99.90
21928;DHT22;11128;51.096;17.190;2023-07-13T04:47:56;21.20;99.90
21928;DHT22;11128;51.096;17.190;2023-07-13T04:52:57;21.10;1.00
21928;DHT22;11128;51.096;17.190;2023-07-13T04:57:59;21.10;1.00
21928;DHT22;11128;51.096;17.190;2023-07-13T05:03:00;20.90;1.00
21928;DHT22;11128;51.096;17.190;2023-07-13T05:08:01;20.50;1.00
21928;DHT22;11128;51.096;17.190;2023-07-13T05:13:03;20.40;1.00
21928;DHT22;11128;51.096;17.190;2023-07-13T05:18:04;20.20;1.00
21928;DHT22;11128;51.096;17.190;2023-07-13T05:23:05;19.80;22.80
21928;DHT22;11128;51.096;17.190;2023-07-13T05:28:07;19.70;99.90
21928;DHT22;11128;51.096;17.190;2023-07-13T05:33:08;19.50;99.90
21928;DHT22;11128;51.096;17.190;2023-07-13T05:38:09;19.30;99.90
21928;DHT22;11128;51.096;17.190;2023-07-13T05:43:11;19.30;99.90
21928;DHT22;11128;51.096;17.190;2023-07-13T05:48:12;19.40;99.90
21928;DHT22;11128;51.096;17.190;2023-07-13T05:53:14;19.30;99.90
21928;DHT22;11128;51.096;17.190;2023-07-13T05:58:16;19.30;99.90
21928;DHT22;11128;51.096;17.190;2023-07-13T06:03:18;19.30;99.90
21928;DHT22;11128;51.096;17.190;2023-07-13T06:08:19;19.30;99.90
21928;DHT22;11128;51.096;17.190;2023-07-13T06:13:20;19.00;1.00
21928;DHT22;11128;51.096;17.190;2023-07-13T06:18:21;19.00;1.00
21928;DHT22;11128;51.096;17.190;2023-07-13T06:23:23;18.80;99.90
21928;DHT22;11128;51.096;17.190;2023-07-13T06:28:25;18.80;99.90
21928;DHT22;11128;51.096;17.190;2023-07-13T06:33:27;18.80;1.00
21928;DHT22;11128;51.096;17.190;2023-07-13T06:38:29;18.90;1.00
21928;DHT22;11128;51.096;17.190;2023-07-13T06:43:30;18.90;10.60
21928;DHT22;11128;51.096;17.190;2023-07-13T06:48:32;19.00;1.00
21928;DHT22;11128;51.096;17.190;2023-07-13T06:53:34;19.20;99.90
21928;DHT22;11128;51.096;17.190;2023-07-13T06:58:35;19.30;99.90
21928;DHT22;11128;51.096;17.190;2023-07-13T07:03:37;19.40;1.00
21928;DHT22;11128;51.096;17.190;2023-07-13T07:08:38;19.50;1.00
21928;DHT22;11128;51.096;17.190;2023-07-13T07:13:39;19.60;1.00
21928;DHT22;11128;51.096;17.190;2023-07-13T07:18:41;19.70;1.00
21928;DHT22;11128;51.096;17.190;2023-07-13T07:23:43;19.60;1.00
21928;DHT22;11128;51.096;17.190;2023-07-13T07:28:45;19.70;1.00
21928;DHT22;11128;51.096;17.190;2023-07-13T07:33:46;19.70;99.90
21928;DHT22;11128;51.096;17.190;2023-07-13T07:38:47;19.80;99.90
21928;DHT22;11128;51.096;17.190;2023-07-13T07:43:49;19.80;1.00
21928;DHT22;11128;51.096;17.190;2023-07-13T07:48:50;19.80;99.90
21928;DHT22;11128;51.096;17.190;2023-07-13T07:53:51;19.70;1.00
21928;DHT22;11128;51.096;17.190;2023-07-13T07:58:52;19.60;99.90
21928;DHT22;11128;51.096;17.190;2023-07-13T08:03:54;19.40;99.90
21928;DHT22;11128;51.096;17.190;2023-07-13T08:08:55;19.30;1.00
21928;DHT22;11128;51.096;17.190;2023-07-13T08:13:57;19.20;1.00
21928;DHT22;11128;51.096;17.190;2023-07-13T08:18:58;19.10;1.00
21928;DHT22;11128;51.096;17.190;2023-07-13T08:23:59;19.20;1.00
21928;DHT22;11128;51.096;17.190;2023-07-13T08:29:01;19.30;99.90
21928;DHT22;11128;51.096;17.190;2023-07-13T08:34:03;19.50;1.00
21928;DHT22;11128;51.096;17.190;2023-07-13T08:39:04;19.70;99.90
21928;DHT22;11128;51.096;17.190;2023-07-13T08:44:16;19.90;99.90
21928;DHT22;11128;51.096;17.190;2023-07-13T08:49:22;20.10;99.90
21928;DHT22;11128;51.096;17.190;2023-07-13T08:54:36;20.20;99.90
21928;DHT22;11128;51.096;17.190;2023-07-13T08:59:38;20.50;1.00
21928;DHT22;11128;51.096;17.190;2023-07-13T09:04:56;20.50;1.00
21928;DHT22;11128;51.096;17.190;2023-07-13T09:10:20;20.60;1.00
21928;DHT22;11128;51.096;17.190;2023-07-13T09:15:30;20.70;1.00
21928;DHT22;11128;51.096;17.190;2023-07-13T09:20:35;20.80;1.00
21928;DHT22;11128;51.096;17.190;2023-07-13T09:25:39;20.90;1.00
21928;DHT22;11128;51.096;17.190;2023-07-13T09:35:47;20.90;1.00
21928;DHT22;11128;51.096;17.190;2023-07-13T09:46:30;21.30;1.00
21928;DHT22;11128;51.096;17.190;2023-07-13T09:51:31;21.50;99.90
21928;DHT22;11128;51.096;17.190;2023-07-13T09:56:32;21.60;99.90
21928;DHT22;11128;51.096;17.190;2023-07-13T10:01:36;21.80;92.20
21928;DHT22;11128;51.096;17.190;2023-07-13T10:06:39;22.10;40.90
21928;DHT22;11128;51.096;17.190;2023-07-13T10:11:45;22.40;1.00
21928;DHT22;11128;51.096;17.190;2023-07-13T10:16:47;22.50;1.00
21928;DHT22;11128;51.096;17.190;2023-07-13T10:21:54;22.80;1.00
21928;DHT22;11128;51.096;17.190;2023-07-13T10:27:19;23.20;1.00
21928;DHT22;11128;51.096;17.190;2023-07-13T10:32:22;23.70;1.00
21928;DHT22;11128;51.096;17.190;2023-07-13T10:37:29;24.00;99.90
21928;DHT22;11128;51.096;17.190;2023-07-13T10:42:39;24.10;99.90
21928;DHT22;11128;51.096;17.190;2023-07-13T10:47:44;24.10;99.90
21928;DHT22;11128;51.096;17.190;2023-07-13T10:52:47;24.00;99.90
21928;DHT22;11128;51.096;17.190;2023-07-13T10:57:49;24.10;99.90
21928;DHT22;11128;51.096;17.190;2023-07-13T11:02:57;24.20;99.90
21928;DHT22;11128;51.096;17.190;2023-07-13T11:13:56;24.80;99.90
21928;DHT22;11128;51.096;17.190;2023-07-13T11:34:15;25.10;1.00
21928;DHT22;11128;51.096;17.190;2023-07-13T11:39:28;25.00;1.00
21928;DHT22;11128;51.096;17.190;2023-07-13T11:44:33;25.10;1.00
21928;DHT22;11128;51.096;17.190;2023-07-13T11:49:42;25.00;1.00
21928;DHT22;11128;51.096;17.190;2023-07-13T11:54:55;24.90;1.00
21928;DHT22;11128;51.096;17.190;2023-07-13T11:59:59;24.90;1.00
21928;DHT22;11128;51.096;17.190;2023-07-13T12:05:03;25.10;1.00
21928;DHT22;11128;51.096;17.190;2023-07-13T12:15:15;25.10;1.00
21928;DHT22;11128;51.096;17.190;2023-07-13T12:20:27;25.00;1.00
21928;DHT22;11128;51.096;17.190;2023-07-13T12:25:50;25.00;1.00
21928;DHT22;11128;51.096;17.190;2023-07-13T12:30:58;25.00;1.00
21928;DHT22;11128;51.096;17.190;2023-07-13T12:36:05;25.10;1.00
21928;DHT22;11128;51.096;17.190;2023-07-13T12:41:08;25.10;1.00
21928;DHT22;11128;51.096;17.190;2023-07-13T12:46:17;25.20;1.00
21928;DHT22;11128;51.096;17.190;2023-07-13T12:51:22;25.50;9.20
21928;DHT22;11128;51.096;17.190;2023-07-13T12:56:26;25.70;1.00
21928;DHT22;11128;51.096;17.190;2023-07-13T13:01:31;25.80;1.00
21928;DHT22;11128;51.096;17.190;2023-07-13T13:06:33;25.90;1.00
21928;DHT22;11128;51.096;17.190;2023-07-13T13:11:36;26.10;1.00
21928;DHT22;11128;51.096;17.190;2023-07-13T13:16:51;26.20;1.00
21928;DHT22;11128;51.096;17.190;2023-07-13T13:21:55;26.40;1.00
21928;DHT22;11128;51.096;17.190;2023-07-13T13:26:57;26.50;1.00
21928;DHT22;11128;51.096;17.190;2023-07-13T13:31:59;26.60;1.00
21928;DHT22;11128;51.096;17.190;2023-07-13T13:37:00;26.70;1.00
21928;DHT22;11128;51.096;17.190;2023-07-13T13:42:01;26.70;1.00
21928;DHT22;11128;51.096;17.190;2023-07-13T13:47:03;26.90;1.00
21928;DHT22;11128;51.096;17.190;2023-07-13T13:52:04;27.00;1.00
21928;DHT22;11128;51.096;17.190;2023-07-13T13:57:06;27.20;1.00
21928;DHT22;11128;51.096;17.190;2023-07-13T14:02:26;27.30;1.00
21928;DHT22;11128;51.096;17.190;2023-07-13T14:07:28;27.50;1.00
21928;DHT22;11128;51.096;17.190;2023-07-13T14:12:33;27.40;1.00
21928;DHT22;11128;51.096;17.190;2023-07-13T14:17:34;27.40;1.00
21928;DHT22;11128;51.096;17.190;2023-07-13T14:22:36;27.50;1.00
21928;DHT22;11128;51.096;17.190;2023-07-13T14:27:37;27.60;1.00
21928;DHT22;11128;51.096;17.190;2023-07-13T14:32:39;27.60;1.00
21928;DHT22;11128;51.096;17.190;2023-07-13T14:37:41;27.60;1.00
21928;DHT22;11128;51.096;17.190;2023-07-13T14:42:43;27.40;1.00
21928;DHT22;11128;51.096;17.190;2023-07-13T14:47:45;27.40;1.00
21928;DHT22;11128;51.096;17.190;2023-07-13T14:52:48;27.50;1.00
21928;DHT22;11128;51.096;17.190;2023-07-13T14:57:49;27.50;1.00
21928;DHT22;11128;51.096;17.190;2023-07-13T15:02:52;27.50;1.00
21928;DHT22;11128;51.096;17.190;2023-07-13T15:08:01;27.40;1.00
21928;DHT22;11128;51.096;17.190;2023-07-13T15:13:32;27.40;1.00
21928;DHT22;11128;51.096;17.190;2023-07-13T15:18:34;27.10;1.00
21928;DHT22;11128;51.096;17.190;2023-07-13T15:23:36;26.90;1.00
21928;DHT22;11128;51.096;17.190;2023-07-13T15:28:37;26.80;1.00
21928;DHT22;11128;51.096;17.190;2023-07-13T15:33:38;26.80;1.00
21928;DHT22;11128;51.096;17.190;2023-07-13T15:38:40;26.70;1.00
21928;DHT22;11128;51.096;17.190;2023-07-13T15:43:43;26.50;1.00
21928;DHT22;11128;51.096;17.190;2023-07-13T15:48:45;26.50;1.00
21928;DHT22;11128;51.096;17.190;2023-07-13T15:53:47;26.50;1.00
21928;DHT22;11128;51.096;17.190;2023-07-13T15:58:52;26.50;1.00
21928;DHT22;11128;51.096;17.190;2023-07-13T16:03:54;26.40;1.00
21928;DHT22;11128;51.096;17.190;2023-07-13T16:08:55;26.30;1.00
21928;DHT22;11128;51.096;17.190;2023-07-13T16:13:57;26.10;1.00
21928;DHT22;11128;51.096;17.190;2023-07-13T16:19:02;26.00;1.00
21928;DHT22;11128;51.096;17.190;2023-07-13T16:24:04;25.90;1.00
21928;DHT22;11128;51.096;17.190;2023-07-13T16:29:20;25.80;1.00
21928;DHT22;11128;51.096;17.190;2023-07-13T16:34:22;25.70;1.00
21928;DHT22;11128;51.096;17.190;2023-07-13T16:39:28;25.50;1.00
21928;DHT22;11128;51.096;17.190;2023-07-13T16:44:31;25.30;1.00
21928;DHT22;11128;51.096;17.190;2023-07-13T16:49:37;25.30;1.00
21928;DHT22;11128;51.096;17.190;2023-07-13T16:54:38;25.20;1.00
21928;DHT22;11128;51.096;17.190;2023-07-13T16:59:40;25.20;1.00
21928;DHT22;11128;51.096;17.190;2023-07-13T17:04:42;25.00;1.00
21928;DHT22;11128;51.096;17.190;2023-07-13T17:09:44;24.90;1.00
21928;DHT22;11128;51.096;17.190;2023-07-13T17:14:46;24.80;1.00
21928;DHT22;11128;51.096;17.190;2023-07-13T17:19:50;24.70;1.00
21928;DHT22;11128;51.096;17.190;2023-07-13T17:24:52;24.60;1.00
21928;DHT22;11128;51.096;17.190;2023-07-13T17:29:55;24.40;1.00
21928;DHT22;11128;51.096;17.190;2023-07-13T17:34:56;24.40;1.00
21928;DHT22;11128;51.096;17.190;2023-07-13T17:39:57;24.30;1.00
21928;DHT22;11128;51.096;17.190;2023-07-13T17:44:59;24.20;1.00
21928;DHT22;11128;51.096;17.190;2023-07-13T17:50:00;24.20;1.00
21928;DHT22;11128;51.096;17.190;2023-07-13T17:55:14;24.10;1.00
21928;DHT22;11128;51.096;17.190;2023-07-13T18:00:19;24.10;1.00
21928;DHT22;11128;51.096;17.190;2023-07-13T18:05:33;24.00;1.00
21928;DHT22;11128;51.096;17.190;2023-07-13T18:10:36;24.00;1.00
21928;DHT22;11128;51.096;17.190;2023-07-13T18:15:38;24.00;1.00
21928;DHT22;11128;51.096;17.190;2023-07-13T18:20:40;23.90;1.00
21928;DHT22;11128;51.096;17.190;2023-07-13T18:25:46;23.80;1.00
21928;DHT22;11128;51.096;17.190;2023-07-13T18:30:52;23.80;1.00
21928;DHT22;11128;51.096;17.190;2023-07-13T18:35:57;23.80;1.00
21928;DHT22;11128;51.096;17.190;2023-07-13T18:40:59;23.70;1.00
21928;DHT22;11128;51.096;17.190;2023-07-13T18:46:11;23.60;1.00
21928;DHT22;11128;51.096;17.190;2023-07-13T18:51:14;23.50;1.00
21928;DHT22;11128;51.096;17.190;2023-07-13T18:56:15;23.50;1.00
21928;DHT22;11128;51.096;17.190;2023-07-13T19:01:34;23.50;1.60
21928;DHT22;11128;51.096;17.190;2023-07-13T19:06:36;23.50;10.10
21928;DHT22;11128;51.096;17.190;2023-07-13T19:11:37;23.50;21.90
21928;DHT22;11128;51.096;17.190;2023-07-13T19:16:38;23.30;65.10
21928;DHT22;11128;51.096;17.190;2023-07-13T19:21:41;23.20;99.90
21928;DHT22;11128;51.096;17.190;2023-07-13T19:26:43;22.80;99.90
21928;DHT22;11128;51.096;17.190;2023-07-13T19:31:45;22.40;99.90
21928;DHT22;11128;51.096;17.190;2023-07-13T19:36:48;21.90;99.90
21928;DHT22;11128;51.096;17.190;2023-07-13T19:41:52;21.60;99.90
21928;DHT22;11128;51.096;17.190;2023-07-13T19:46:53;21.40;99.90
21928;DHT22;11128;51.096;17.190;2023-07-13T19:51:59;21.20;99.90
21928;DHT22;11128;51.096;17.190;2023-07-13T19:57:00;21.30;1.00
21928;DHT22;11128;51.096;17.190;2023-07-13T20:02:02;21.50;99.90
21928;DHT22;11128;51.096;17.190;2023-07-13T20:07:16;21.60;99.90
21928;DHT22;11128;51.096;17.190;2023-07-13T20:12:23;21.50;99.90
21928;DHT22;11128;51.096;17.190;2023-07-13T20:17:30;21.40;99.90
21928;DHT22;11128;51.096;17.190;2023-07-13T20:22:31;21.20;99.90
21928;DHT22;11128;51.096;17.190;2023-07-13T20:27:33;21.20;99.90
21928;DHT22;11128;51.096;17.190;2023-07-13T20:32:36;21.20;99.90
21928;DHT22;11128;51.096;17.190;2023-07-13T20:37:38;21.10;99.90
21928;DHT22;11128;51.096;17.190;2023-07-13T20:42:40;21.20;99.90
21928;DHT22;11128;51.096;17.190;2023-07-13T20:47:41;21.00;1.00
21928;DHT22;11128;51.096;17.190;2023-07-13T20:52:44;20.70;1.00
21928;DHT22;11128;51.096;17.190;2023-07-13T20:57:49;20.50;1.00
21928;DHT22;11128;51.096;17.190;2023-07-13T21:02:54;20.50;1.00
21928;DHT22;11128;51.096;17.190;2023-07-13T21:07:57;20.60;1.00
21928;DHT22;11128;51.096;17.190;2023-07-13T21:12:58;20.50;1.00
21928;DHT22;11128;51.096;17.190;2023-07-13T21:18:01;20.80;1.00
21928;DHT22;11128;51.096;17.190;2023-07-13T21:23:30;20.80;1.00
21928;DHT22;11128;51.096;17.190;2023-07-13T21:28:40;20.70;99.90
21928;DHT22;11128;51.096;17.190;2023-07-13T21:33:42;20.80;99.90
21928;DHT22;11128;51.096;17.190;2023-07-13T21:38:43;20.80;99.90
21928;DHT22;11128;51.096;17.190;2023-07-13T21:43:46;20.60;99.90
21928;DHT22;11128;51.096;17.190;2023-07-13T21:48:48;20.60;99.90
21928;DHT22;11128;51.096;17.190;2023-07-13T21:53:50;20.50;99.90
21928;DHT22;11128;51.096;17.190;2023-07-13T21:58:52;20.40;99.90
21928;DHT22;11128;51.096;17.190;2023-07-13T22:03:57;20.50;99.90
21928;DHT22;11128;51.096;17.190;2023-07-13T22:08:59;20.30;99.90
21928;DHT22;11128;51.096;17.190;2023-07-13T22:14:00;20.20;99.90
21928;DHT22;11128;51.096;17.190;2023-07-13T22:19:12;20.10;99.90
21928;DHT22;11128;51.096;17.190;2023-07-13T22:24:17;19.90;1.00
21928;DHT22;11128;51.096;17.190;2023-07-13T22:29:21;19.80;1.00
21928;DHT22;11128;51.096;17.190;2023-07-13T22:34:24;19.90;1.00
21928;DHT22;11128;51.096;17.190;2023-07-13T22:39:32;19.80;1.00
21928;DHT22;11128;51.096;17.190;2023-07-13T22:44:33;19.60;1.00
21928;DHT22;11128;51.096;17.190;2023-07-13T22:49:35;19.60;1.00
21928;DHT22;11128;51.096;17.190;2023-07-13T22:54:36;19.60;1.00
21928;DHT22;11128;51.096;17.190;2023-07-13T22:59:37;19.60;1.00
21928;DHT22;11128;51.096;17.190;2023-07-13T23:04:39;19.60;1.00
21928;DHT22;11128;51.096;17.190;2023-07-13T23:09:41;19.60;1.00
21928;DHT22;11128;51.096;17.190;2023-07-13T23:14:43;19.60;1.00
21928;DHT22;11128;51.096;17.190;2023-07-13T23:19:45;19.60;1.00
21928;DHT22;11128;51.096;17.190;2023-07-13T23:24:46;19.50;1.00
21928;DHT22;11128;51.096;17.190;2023-07-13T23:29:47;19.40;1.00
21928;DHT22;11128;51.096;17.190;2023-07-13T23:34:49;19.30;1.00
21928;DHT22;11128;51.096;17.190;2023-07-13T23:39:50;19.20;1.00
21928;DHT22;11128;51.096;17.190;2023-07-13T23:44:52;19.20;1.00
21928;DHT22;11128;51.096;17.190;2023-07-13T23:49:53;19.00;1.00
21928;DHT22;11128;51.096;17.190;2023-07-13T23:54:56;18.90;1.00
21928;DHT22;11128;51.096;17.190;2023-07-13T23:59:58;18.80;1.00
